createdAt,value
2018-02-13T00:00:54.720Z,1
2018-02-13T00:01:54.778Z,0.94
2018-02-13T00:02:54.719Z,1
2018-02-13T00:03:54.709Z,0.94
2018-02-13T00:04:54.765Z,0.94
2018-02-13T00:05:54.806Z,1
2018-02-13T00:06:54.705Z,0.94
2018-02-13T00:07:54.866Z,0.94
2018-02-13T00:08:54.719Z,0.88
2018-02-13T00:12:54.945Z,0.88
2018-02-13T00:13:56.135Z,0.88
2018-02-13T00:14:55.758Z,0.81
2018-02-13T00:15:54.669Z,0.81
2018-02-13T00:16:54.637Z,0.81
2018-02-13T00:17:54.651Z,0.88
2018-02-13T00:18:54.710Z,0.88
2018-02-13T00:19:54.643Z,0.88
2018-02-13T00:20:55.744Z,0.88
2018-02-13T00:21:54.902Z,0.94
2018-02-13T00:22:54.638Z,0.94
2018-02-13T00:23:54.651Z,0.88
2018-02-13T00:24:54.656Z,0.94
2018-02-13T00:25:54.648Z,0.88
2018-02-13T00:26:54.664Z,0.88
2018-02-13T00:27:54.919Z,0.88
2018-02-13T00:28:54.669Z,0.88
2018-02-13T00:29:54.687Z,0.88
2018-02-13T00:30:54.642Z,0.88
2018-02-13T00:31:54.640Z,0.88
2018-02-13T00:32:54.920Z,0.94
2018-02-13T00:33:56.197Z,0.88
2018-02-13T00:34:54.658Z,0.94
2018-02-13T00:35:55.311Z,0.94
2018-02-13T00:36:54.659Z,0.94
2018-02-13T00:37:54.646Z,0.94
2018-02-13T00:38:54.656Z,0.94
2018-02-13T00:39:54.879Z,0.94
2018-02-13T00:40:54.711Z,0.94
2018-02-13T00:41:55.049Z,0.94
2018-02-13T00:42:55.092Z,0.94
2018-02-13T00:43:54.832Z,0.94
2018-02-13T00:44:54.724Z,0.94
2018-02-13T00:45:54.663Z,0.88
2018-02-13T00:46:54.556Z,0.88
2018-02-13T00:47:54.566Z,0.94
2018-02-13T00:48:54.553Z,0.88
2018-02-13T00:49:54.579Z,0.88
2018-02-13T00:50:54.548Z,0.88
2018-02-13T00:51:54.571Z,0.94
2018-02-13T00:52:54.584Z,0.88
2018-02-13T00:53:54.600Z,0.94
2018-02-13T00:54:54.616Z,0.88
2018-02-13T00:55:54.585Z,0.88
2018-02-13T00:56:54.575Z,0.94
2018-02-13T00:57:54.550Z,0.88
2018-02-13T00:58:54.571Z,0.94
2018-02-13T00:59:55.350Z,0.88
2018-02-13T01:00:54.570Z,0.94
2018-02-13T01:01:54.692Z,0.94
2018-02-13T01:02:54.557Z,0.94
2018-02-13T01:03:54.574Z,0.94
2018-02-13T01:04:54.594Z,0.94
2018-02-13T01:05:54.573Z,0.88
2018-02-13T01:06:54.613Z,0.94
2018-02-13T01:07:54.590Z,0.94
2018-02-13T01:08:54.587Z,0.94
2018-02-13T01:09:54.599Z,0.94
2018-02-13T01:10:54.601Z,0.94
2018-02-13T01:11:54.574Z,0.94
2018-02-13T01:12:54.567Z,0.94
2018-02-13T01:13:54.581Z,0.94
2018-02-13T01:14:54.586Z,0.94
2018-02-13T01:15:54.594Z,0.94
2018-02-13T01:16:54.594Z,0.94
2018-02-13T01:17:54.405Z,0.94
2018-02-13T01:18:54.428Z,0.88
2018-02-13T01:19:54.441Z,0.94
2018-02-13T01:20:54.576Z,0.88
2018-02-13T01:21:54.479Z,0.94
2018-02-13T01:22:54.418Z,0.88
2018-02-13T01:23:54.430Z,0.94
2018-02-13T01:24:54.432Z,0.88
2018-02-13T01:25:54.424Z,0.88
2018-02-13T01:26:54.425Z,0.88
2018-02-13T01:27:54.417Z,0.94
2018-02-13T01:28:54.439Z,0.88
2018-02-13T01:29:54.425Z,0.88
2018-02-13T01:30:54.432Z,0.94
2018-02-13T01:31:54.446Z,0.88
2018-02-13T01:32:54.995Z,0.88
2018-02-13T01:33:55.361Z,0.88
2018-02-13T01:34:54.431Z,0.94
2018-02-13T01:35:55.408Z,0.88
2018-02-13T01:36:54.431Z,0.88
2018-02-13T01:37:54.424Z,0.81
2018-02-13T01:38:54.425Z,0.88
2018-02-13T01:42:06.500Z,0.81
2018-02-13T01:42:54.433Z,0.81
2018-02-13T01:43:54.817Z,0.75
2018-02-13T01:44:54.427Z,0.81
2018-02-13T01:45:54.444Z,0.81
2018-02-13T01:46:54.422Z,0.81
2018-02-13T01:47:54.446Z,0.81
2018-02-13T01:48:54.273Z,0.81
2018-02-13T01:49:54.288Z,0.81
2018-02-13T01:50:54.293Z,0.75
2018-02-13T01:51:54.484Z,0.81
2018-02-13T01:52:54.278Z,0.75
2018-02-13T01:53:54.524Z,0.75
2018-02-13T01:54:54.336Z,0.81
2018-02-13T01:55:54.277Z,0.75
2018-02-13T01:56:54.282Z,0.75
2018-02-13T01:57:54.286Z,0.75
2018-02-13T02:00:28.479Z,0.75
2018-02-13T02:00:54.435Z,0.75
2018-02-13T02:01:54.914Z,0.75
2018-02-13T02:02:54.287Z,0.75
2018-02-13T02:03:54.295Z,0.75
2018-02-13T02:04:54.300Z,0.75
2018-02-13T02:05:54.322Z,0.69
2018-02-13T02:06:54.282Z,0.75
2018-02-13T02:07:54.261Z,0.69
2018-02-13T02:08:54.759Z,0.75
2018-02-13T02:09:54.790Z,0.69
2018-02-13T02:10:54.293Z,0.69
2018-02-13T02:11:54.284Z,0.69
2018-02-13T02:12:54.627Z,0.75
2018-02-13T02:13:54.283Z,0.69
2018-02-13T02:14:54.620Z,0.75
2018-02-13T02:15:54.268Z,0.69
2018-02-13T02:16:54.307Z,0.75
2018-02-13T02:17:54.295Z,0.69
2018-02-13T02:18:54.294Z,0.75
2018-02-13T02:19:54.246Z,0.69
2018-02-13T02:20:54.206Z,0.62
2018-02-13T02:21:54.244Z,0.62
2018-02-13T02:22:54.221Z,0.56
2018-02-13T02:23:54.220Z,0.56
2018-02-13T02:24:54.200Z,0.56
2018-02-13T02:25:54.390Z,0.56
2018-02-13T02:26:54.192Z,0.62
2018-02-13T02:27:54.216Z,0.62
2018-02-13T02:28:54.224Z,0.62
2018-02-13T02:29:54.251Z,0.62
2018-02-13T02:30:54.217Z,0.62
2018-02-13T02:31:54.201Z,0.69
2018-02-13T02:32:54.211Z,0.62
2018-02-13T02:33:54.214Z,0.62
2018-02-13T02:34:54.227Z,0.62
2018-02-13T02:35:54.293Z,0.62
2018-02-13T02:36:54.195Z,0.56
2018-02-13T02:37:54.220Z,0.56
2018-02-13T02:38:54.210Z,0.56
2018-02-13T02:39:54.215Z,0.56
2018-02-13T02:40:54.268Z,0.56
2018-02-13T02:41:54.315Z,0.56
2018-02-13T02:42:54.223Z,0.56
2018-02-13T02:43:54.243Z,0.56
2018-02-13T02:44:54.219Z,0.56
2018-02-13T02:45:54.236Z,0.56
2018-02-13T02:46:54.207Z,0.56
2018-02-13T02:47:54.255Z,0.5
2018-02-13T02:48:54.218Z,0.56
2018-02-13T02:49:54.240Z,0.5
2018-02-13T02:50:54.093Z,0.5
2018-02-13T02:51:54.092Z,0.5
2018-02-13T02:52:54.083Z,0.5
2018-02-13T02:53:54.140Z,0.44
2018-02-13T02:54:54.081Z,0.5
2018-02-13T02:55:54.274Z,0.44
2018-02-13T02:56:54.074Z,0.5
2018-02-13T02:57:54.075Z,0.44
2018-02-13T02:58:54.070Z,0.44
2018-02-13T02:59:54.073Z,0.44
2018-02-13T03:00:54.111Z,0.44
2018-02-13T03:01:54.083Z,0.44
2018-02-13T03:02:54.073Z,0.44
2018-02-13T03:03:54.100Z,0.44
2018-02-13T03:04:54.067Z,0.44
2018-02-13T03:05:54.093Z,0.44
2018-02-13T03:06:54.059Z,0.37
2018-02-13T03:07:54.223Z,0.37
2018-02-13T03:10:21.119Z,0.37
2018-02-13T03:10:54.068Z,0.37
2018-02-13T03:11:54.066Z,0.37
2018-02-13T03:12:54.082Z,0.31
2018-02-13T03:13:54.148Z,0.37
2018-02-13T03:14:54.066Z,0.37
2018-02-13T03:15:54.065Z,0.44
2018-02-13T03:16:54.081Z,0.44
2018-02-13T03:18:02.129Z,0.44
2018-02-13T03:18:54.136Z,0.44
2018-02-13T03:19:54.124Z,0.44
2018-02-13T03:20:54.069Z,0.44
2018-02-13T03:21:53.908Z,0.5
2018-02-13T03:22:53.898Z,0.44
2018-02-13T03:23:53.948Z,0.44
2018-02-13T03:24:53.898Z,0.44
2018-02-13T03:25:53.898Z,0.37
2018-02-13T03:26:53.898Z,0.44
2018-02-13T03:27:53.962Z,0.44
2018-02-13T03:28:53.904Z,0.44
2018-02-13T03:29:53.889Z,0.37
2018-02-13T03:30:53.934Z,0.37
2018-02-13T03:31:53.911Z,0.44
2018-02-13T03:32:53.956Z,0.44
2018-02-13T03:33:53.896Z,0.37
2018-02-13T03:34:53.916Z,0.37
2018-02-13T03:35:53.933Z,0.31
2018-02-13T03:36:53.917Z,0.37
2018-02-13T03:37:53.903Z,0.25
2018-02-13T03:38:53.942Z,0.31
2018-02-13T03:39:53.932Z,0.25
2018-02-13T03:40:53.925Z,0.25
2018-02-13T03:41:53.935Z,0.25
2018-02-13T03:42:53.904Z,0.25
2018-02-13T03:43:53.940Z,0.25
2018-02-13T03:44:53.945Z,0.25
2018-02-13T03:45:53.915Z,0.25
2018-02-13T03:46:53.925Z,0.25
2018-02-13T03:47:53.992Z,0.25
2018-02-13T03:48:53.961Z,0.19
2018-02-13T03:49:53.907Z,0.19
2018-02-13T03:50:53.917Z,0.19
2018-02-13T03:51:53.917Z,0.25
2018-02-13T03:52:54.736Z,0.25
2018-02-13T03:53:55.053Z,0.25
2018-02-13T03:54:54.751Z,0.25
2018-02-13T03:55:54.756Z,0.25
2018-02-13T03:56:54.735Z,0.19
2018-02-13T03:57:54.740Z,0.25
2018-02-13T03:58:54.777Z,0.25
2018-02-13T03:59:54.747Z,0.25
2018-02-13T04:00:54.753Z,0.19
2018-02-13T04:01:54.745Z,0.25
2018-02-13T04:02:54.766Z,0.25
2018-02-13T04:03:54.781Z,0.19
2018-02-13T04:04:54.771Z,0.19
2018-02-13T04:05:54.794Z,0.19
2018-02-13T04:06:54.812Z,0.19
2018-02-13T04:07:54.750Z,0.13
2018-02-13T04:08:54.773Z,0.13
2018-02-13T04:09:54.780Z,0.06
2018-02-13T04:10:54.756Z,0.13
2018-02-13T04:11:54.780Z,0.06
2018-02-13T04:12:54.772Z,0.06
2018-02-13T04:13:54.783Z,0.06
2018-02-13T04:14:54.801Z,0
2018-02-13T04:15:54.760Z,0
2018-02-13T04:16:54.777Z,0
2018-02-13T04:17:54.775Z,0
2018-02-13T04:18:54.787Z,-0.06
2018-02-13T04:19:54.777Z,-0.06
2018-02-13T04:20:54.762Z,-0.06
2018-02-13T04:21:54.765Z,-0.06
2018-02-13T04:22:54.603Z,-0.06
2018-02-13T04:23:54.719Z,-0.06
2018-02-13T04:24:54.598Z,-0.06
2018-02-13T04:25:54.590Z,-0.06
2018-02-13T04:26:54.606Z,-0.06
2018-02-13T04:27:54.595Z,-0.06
2018-02-13T04:28:54.631Z,-0.06
2018-02-13T04:29:54.597Z,-0.06
2018-02-13T04:30:54.617Z,-0.06
2018-02-13T04:31:54.610Z,0
2018-02-13T04:32:54.615Z,-0.06
2018-02-13T04:33:54.713Z,-0.06
2018-02-13T04:34:54.604Z,-0.06
2018-02-13T04:35:54.596Z,-0.06
2018-02-13T04:36:54.615Z,-0.06
2018-02-13T04:37:54.599Z,-0.06
2018-02-13T04:38:54.661Z,-0.06
2018-02-13T04:39:54.624Z,-0.06
2018-02-13T04:40:54.881Z,-0.06
2018-02-13T04:41:54.610Z,-0.06
2018-02-13T04:42:54.619Z,-0.06
2018-02-13T04:43:54.629Z,-0.06
2018-02-13T04:44:54.614Z,0
2018-02-13T04:45:54.626Z,-0.06
2018-02-13T04:46:54.602Z,-0.06
2018-02-13T04:47:54.617Z,-0.06
2018-02-13T04:48:54.647Z,-0.06
2018-02-13T04:49:54.626Z,-0.13
2018-02-13T04:50:54.616Z,-0.06
2018-02-13T04:51:54.597Z,-0.13
2018-02-13T04:52:54.617Z,-0.06
2018-02-13T04:53:54.455Z,-0.06
2018-02-13T04:54:54.438Z,0
2018-02-13T04:55:54.823Z,-0.06
2018-02-13T04:56:54.440Z,0
2018-02-13T04:57:54.434Z,0
2018-02-13T04:58:54.449Z,0
2018-02-13T04:59:54.460Z,0
2018-02-13T05:00:54.500Z,0
2018-02-13T05:01:54.450Z,0
2018-02-13T05:02:54.451Z,0.06
2018-02-13T05:03:54.461Z,0.06
2018-02-13T05:04:54.468Z,0.06
2018-02-13T05:05:54.855Z,0.06
2018-02-13T05:06:54.446Z,0.13
2018-02-13T05:07:54.463Z,0.13
2018-02-13T05:08:54.452Z,0.13
2018-02-13T05:09:54.451Z,0.13
2018-02-13T05:10:54.490Z,0.13
2018-02-13T05:11:54.465Z,0.19
2018-02-13T05:12:54.444Z,0.13
2018-02-13T05:13:54.461Z,0.13
2018-02-13T05:14:54.454Z,0.19
2018-02-13T05:15:54.444Z,0.19
2018-02-13T05:16:54.449Z,0.19
2018-02-13T05:17:54.487Z,0.19
2018-02-13T05:18:54.462Z,0.25
2018-02-13T05:19:54.457Z,0.19
2018-02-13T05:20:54.475Z,0.13
2018-02-13T05:21:54.457Z,0.19
2018-02-13T05:22:54.492Z,0.19
2018-02-13T05:23:54.466Z,0.13
2018-02-13T05:24:54.298Z,0.13
2018-02-13T05:25:54.326Z,0.19
2018-02-13T05:26:54.296Z,0.19
2018-02-13T05:28:54.326Z,0.13
2018-02-13T05:29:54.309Z,0.19
2018-02-13T05:30:54.296Z,0.13
2018-02-13T05:31:54.282Z,0.13
2018-02-13T05:32:54.338Z,0.19
2018-02-13T05:33:54.336Z,0.13
2018-02-13T05:34:54.329Z,0.19
2018-02-13T05:35:54.281Z,0.19
2018-02-13T05:36:54.302Z,0.19
2018-02-13T05:37:54.341Z,0.19
2018-02-13T05:38:54.315Z,0.19
2018-02-13T05:39:54.353Z,0.19
2018-02-13T05:40:54.315Z,0.19
2018-02-13T05:41:54.315Z,0.25
2018-02-13T05:42:54.331Z,0.19
2018-02-13T05:43:54.312Z,0.19
2018-02-13T05:44:54.313Z,0.19
2018-02-13T05:45:54.311Z,0.19
2018-02-13T05:46:54.329Z,0.19
2018-02-13T05:47:54.309Z,0.13
2018-02-13T05:48:54.333Z,0.13
2018-02-13T05:49:54.354Z,0.13
2018-02-13T05:50:54.450Z,0.19
2018-02-13T05:51:54.308Z,0.13
2018-02-13T05:52:54.313Z,0.13
2018-02-13T05:53:54.302Z,0.13
2018-02-13T05:54:54.317Z,0.13
2018-02-13T05:55:54.213Z,0.13
2018-02-13T05:56:54.186Z,0.13
2018-02-13T06:00:22.214Z,0.13
2018-02-13T06:00:54.210Z,0.13
2018-02-13T06:01:54.546Z,0.13
2018-02-13T06:02:54.233Z,0.13
2018-02-13T06:03:54.200Z,0.13
2018-02-13T06:04:54.185Z,0.13
2018-02-13T06:05:54.194Z,0.19
2018-02-13T06:06:54.547Z,0.19
2018-02-13T06:07:54.194Z,0.19
2018-02-13T06:08:54.217Z,0.19
2018-02-13T06:09:54.207Z,0.19
2018-02-13T06:10:54.224Z,0.13
2018-02-13T06:11:54.207Z,0.19
2018-02-13T06:12:54.210Z,0.19
2018-02-13T06:13:54.200Z,0.19
2018-02-13T06:14:54.193Z,0.19
2018-02-13T06:15:54.249Z,0.19
2018-02-13T06:16:54.200Z,0.25
2018-02-13T06:17:54.216Z,0.25
2018-02-13T06:18:54.204Z,0.25
2018-02-13T06:19:54.249Z,0.25
2018-02-13T06:20:54.420Z,0.19
2018-02-13T06:21:54.191Z,0.19
2018-02-13T06:22:54.208Z,0.25
2018-02-13T06:23:54.226Z,0.25
2018-02-13T06:24:54.217Z,0.25
2018-02-13T06:25:54.196Z,0.19
2018-02-13T06:26:54.066Z,0.19
2018-02-13T06:27:54.015Z,0.19
2018-02-13T06:28:54.050Z,0.19
2018-02-13T06:29:54.043Z,0.13
2018-02-13T06:30:54.045Z,0.13
2018-02-13T06:31:54.047Z,0.13
2018-02-13T06:32:54.046Z,0.13
2018-02-13T06:33:54.041Z,0.13
2018-02-13T06:34:54.086Z,0.13
2018-02-13T06:35:54.048Z,0.19
2018-02-13T06:36:54.037Z,0.13
2018-02-13T06:37:54.056Z,0.19
2018-02-13T06:38:54.334Z,0.13
2018-02-13T06:39:54.112Z,0.19
2018-02-13T06:40:54.063Z,0.13
2018-02-13T06:41:54.054Z,0.13
2018-02-13T06:42:54.109Z,0.13
2018-02-13T06:43:54.043Z,0.13
2018-02-13T06:44:54.081Z,0.13
2018-02-13T06:45:54.057Z,0.19
2018-02-13T06:46:54.042Z,0.13
2018-02-13T06:47:54.047Z,0.19
2018-02-13T06:48:54.057Z,0.13
2018-02-13T06:49:54.064Z,0.13
2018-02-13T06:50:54.049Z,0.13
2018-02-13T06:51:54.042Z,0.06
2018-02-13T06:52:54.048Z,0.13
2018-02-13T06:53:54.063Z,0.06
2018-02-13T06:54:54.044Z,0.13
2018-02-13T06:55:54.035Z,0.13
2018-02-13T06:56:54.160Z,0.13
2018-02-13T06:57:53.979Z,0.13
2018-02-13T06:58:54.042Z,0.13
2018-02-13T06:59:53.997Z,0.13
2018-02-13T07:00:54.058Z,0.13
2018-02-13T07:01:54.021Z,0.13
2018-02-13T07:02:53.977Z,0.13
2018-02-13T07:03:53.987Z,0.13
2018-02-13T07:04:53.989Z,0.13
2018-02-13T07:05:53.981Z,0.13
2018-02-13T07:06:53.984Z,0.13
2018-02-13T07:07:53.989Z,0.13
2018-02-13T07:08:54.009Z,0.13
2018-02-13T07:09:53.977Z,0.13
2018-02-13T07:10:53.991Z,0.13
2018-02-13T07:11:53.989Z,0.13
2018-02-13T07:12:53.991Z,0.13
2018-02-13T07:13:53.983Z,0.19
2018-02-13T07:14:53.976Z,0.19
2018-02-13T07:15:54.001Z,0.19
2018-02-13T07:16:54.071Z,0.13
2018-02-13T07:17:53.996Z,0.19
2018-02-13T07:18:53.984Z,0.19
2018-02-13T07:19:54.017Z,0.19
2018-02-13T07:20:54.005Z,0.19
2018-02-13T07:21:54.032Z,0.25
2018-02-13T07:22:54.000Z,0.25
2018-02-13T07:23:53.995Z,0.25
2018-02-13T07:24:54.011Z,0.25
2018-02-13T07:25:53.986Z,0.31
2018-02-13T07:26:54.038Z,0.31
2018-02-13T07:27:53.985Z,0.37
2018-02-13T07:28:53.878Z,0.31
2018-02-13T07:29:53.892Z,0.31
2018-02-13T07:30:53.855Z,0.31
2018-02-13T07:31:53.970Z,0.31
2018-02-13T07:32:53.872Z,0.31
2018-02-13T07:33:53.860Z,0.37
2018-02-13T07:34:53.870Z,0.37
2018-02-13T07:35:53.872Z,0.37
2018-02-13T07:36:53.888Z,0.37
2018-02-13T07:37:53.865Z,0.37
2018-02-13T07:38:53.895Z,0.44
2018-02-13T07:39:53.918Z,0.37
2018-02-13T07:40:53.983Z,0.37
2018-02-13T07:41:53.872Z,0.44
2018-02-13T07:42:53.865Z,0.44
2018-02-13T07:43:53.866Z,0.44
2018-02-13T07:44:53.883Z,0.5
2018-02-13T07:45:53.893Z,0.5
2018-02-13T07:46:53.908Z,0.5
2018-02-13T07:47:53.862Z,0.5
2018-02-13T07:48:53.882Z,0.5
2018-02-13T07:49:53.880Z,0.5
2018-02-13T07:50:53.880Z,0.5
2018-02-13T07:51:53.888Z,0.56
2018-02-13T07:52:53.864Z,0.56
2018-02-13T07:53:53.867Z,0.56
2018-02-13T07:54:53.939Z,0.56
2018-02-13T07:55:53.898Z,0.62
2018-02-13T07:56:53.873Z,0.56
2018-02-13T07:57:53.945Z,0.62
2018-02-13T07:58:53.865Z,0.56
2018-02-13T07:59:54.712Z,0.62
2018-02-13T08:00:55.006Z,0.62
2018-02-13T08:01:54.704Z,0.62
2018-02-13T08:02:54.696Z,0.62
2018-02-13T08:03:54.709Z,0.69
2018-02-13T08:04:54.691Z,0.69
2018-02-13T08:05:54.725Z,0.69
2018-02-13T08:06:54.686Z,0.62
2018-02-13T08:07:54.843Z,0.69
2018-02-13T08:08:54.736Z,0.69
2018-02-13T08:09:54.839Z,0.69
2018-02-13T08:10:54.729Z,0.62
2018-02-13T08:11:54.692Z,0.69
2018-02-13T08:12:54.695Z,0.69
2018-02-13T08:13:54.692Z,0.69
2018-02-13T08:14:54.700Z,0.69
2018-02-13T08:15:54.690Z,0.69
2018-02-13T08:16:54.695Z,0.75
2018-02-13T08:17:54.698Z,0.75
2018-02-13T08:18:54.702Z,0.75
2018-02-13T08:19:54.701Z,0.75
2018-02-13T08:20:54.694Z,0.81
2018-02-13T08:21:54.712Z,0.75
2018-02-13T08:22:54.695Z,0.81
2018-02-13T08:23:54.723Z,0.75
2018-02-13T08:24:54.687Z,0.75
2018-02-13T08:25:54.695Z,0.75
2018-02-13T08:26:54.711Z,0.75
2018-02-13T08:27:54.801Z,0.75
2018-02-13T08:28:54.715Z,0.69
2018-02-13T08:29:54.628Z,0.75
2018-02-13T08:30:54.606Z,0.75
2018-02-13T08:31:54.613Z,0.75
2018-02-13T08:32:54.588Z,0.75
2018-02-13T08:33:54.601Z,0.75
2018-02-13T08:34:54.613Z,0.75
2018-02-13T08:35:54.607Z,0.75
2018-02-13T08:36:54.593Z,0.81
2018-02-13T08:37:54.670Z,0.81
2018-02-13T08:38:54.622Z,0.81
2018-02-13T08:39:54.618Z,0.81
2018-02-13T08:40:54.666Z,0.88
2018-02-13T08:41:54.597Z,0.88
2018-02-13T08:42:54.617Z,0.88
2018-02-13T08:43:54.682Z,0.88
2018-02-13T08:44:54.649Z,0.88
2018-02-13T08:45:54.617Z,0.94
2018-02-13T08:46:54.630Z,0.94
2018-02-13T08:47:54.609Z,1
2018-02-13T08:48:54.603Z,1
2018-02-13T08:49:54.729Z,1
2018-02-13T08:50:54.618Z,1.06
2018-02-13T08:51:54.632Z,1.06
2018-02-13T08:52:54.596Z,1.06
2018-02-13T08:53:54.613Z,1.06
2018-02-13T08:54:54.646Z,1.12
2018-02-13T08:55:54.616Z,1.12
2018-02-13T08:56:54.615Z,1.19
2018-02-13T08:57:54.625Z,1.12
2018-02-13T08:58:54.661Z,1.19
2018-02-13T08:59:54.634Z,1.19
2018-02-13T09:00:54.459Z,1.19
2018-02-13T09:01:54.475Z,1.25
2018-02-13T09:02:54.493Z,1.19
2018-02-13T09:03:54.467Z,1.25
2018-02-13T09:04:54.482Z,1.25
2018-02-13T09:05:54.497Z,1.25
2018-02-13T09:06:54.845Z,1.25
2018-02-13T09:07:54.473Z,1.31
2018-02-13T09:08:54.493Z,1.25
2018-02-13T09:09:54.479Z,1.25
2018-02-13T09:10:54.481Z,1.25
2018-02-13T09:11:54.497Z,1.31
2018-02-13T09:12:54.483Z,1.25
2018-02-13T09:13:54.473Z,1.31
2018-02-13T09:14:54.490Z,1.31
2018-02-13T09:15:54.465Z,1.31
2018-02-13T09:16:54.499Z,1.31
2018-02-13T09:17:54.531Z,1.31
2018-02-13T09:18:54.497Z,1.37
2018-02-13T09:19:54.534Z,1.37
2018-02-13T09:20:54.500Z,1.44
2018-02-13T09:21:54.475Z,1.44
2018-02-13T09:22:54.549Z,1.5
2018-02-13T09:23:54.538Z,1.5
2018-02-13T09:24:54.483Z,1.5
2018-02-13T09:25:54.475Z,1.56
2018-02-13T09:26:54.496Z,1.62
2018-02-13T09:27:54.497Z,1.62
2018-02-13T09:28:54.467Z,1.69
2018-02-13T09:29:54.871Z,1.69
2018-02-13T09:30:54.715Z,1.75
2018-02-13T09:31:54.689Z,1.75
2018-02-13T09:32:54.694Z,1.81
2018-02-13T09:33:54.712Z,1.75
2018-02-13T09:34:54.741Z,1.75
2018-02-13T09:35:54.698Z,1.75
2018-02-13T09:36:54.706Z,1.75
2018-02-13T09:37:54.688Z,1.75
2018-02-13T09:38:54.701Z,1.75
2018-02-13T09:39:54.726Z,1.69
2018-02-13T09:40:54.712Z,1.69
2018-02-13T09:41:54.712Z,1.69
2018-02-13T09:42:54.706Z,1.69
2018-02-13T09:43:54.715Z,1.69
2018-02-13T09:44:54.699Z,1.69
2018-02-13T09:45:54.996Z,1.69
2018-02-13T09:46:54.690Z,1.69
2018-02-13T09:47:54.703Z,1.75
2018-02-13T09:48:54.718Z,1.75
2018-02-13T09:49:54.770Z,1.75
2018-02-13T09:50:54.729Z,1.81
2018-02-13T09:51:54.698Z,1.81
2018-02-13T09:52:54.711Z,1.87
2018-02-13T09:53:54.716Z,1.87
2018-02-13T09:54:54.715Z,1.94
2018-02-13T09:55:54.760Z,1.94
2018-02-13T09:56:54.729Z,1.94
2018-02-13T09:57:54.726Z,1.94
2018-02-13T09:58:54.700Z,2
2018-02-13T09:59:54.706Z,2.06
2018-02-13T10:00:54.745Z,2.06
2018-02-13T10:01:54.592Z,2.06
2018-02-13T10:02:54.575Z,2.12
2018-02-13T10:03:54.659Z,2.19
2018-02-13T10:04:54.596Z,2.19
2018-02-13T10:05:54.590Z,2.25
2018-02-13T10:06:54.583Z,2.25
2018-02-13T10:07:54.576Z,2.31
2018-02-13T10:08:54.554Z,2.31
2018-02-13T10:09:54.655Z,2.44
2018-02-13T10:10:54.606Z,2.44
2018-02-13T10:11:54.574Z,2.5
2018-02-13T10:12:54.598Z,2.56
2018-02-13T10:13:54.567Z,2.56
2018-02-13T10:14:54.575Z,2.69
2018-02-13T10:15:54.576Z,2.81
2018-02-13T10:16:54.567Z,2.81
2018-02-13T10:17:54.581Z,2.81
2018-02-13T10:18:54.565Z,2.87
2018-02-13T10:19:54.570Z,2.87
2018-02-13T10:20:54.572Z,2.94
2018-02-13T10:21:54.595Z,3
2018-02-13T10:22:54.580Z,3.06
2018-02-13T10:23:54.580Z,3.06
2018-02-13T10:24:54.595Z,3.12
2018-02-13T10:25:54.593Z,3.12
2018-02-13T10:26:54.594Z,3.19
2018-02-13T10:27:54.653Z,3.19
2018-02-13T10:28:54.677Z,3.25
2018-02-13T10:29:54.671Z,3.25
2018-02-13T10:30:54.683Z,3.31
2018-02-13T10:31:55.005Z,3.31
2018-02-13T10:32:53.913Z,3.31
2018-02-13T10:33:53.919Z,3.37
2018-02-13T10:34:53.922Z,3.37
2018-02-13T10:35:53.933Z,3.44
2018-02-13T10:36:53.926Z,3.44
2018-02-13T10:37:53.926Z,3.44
2018-02-13T10:38:53.926Z,3.5
2018-02-13T10:39:53.902Z,3.56
2018-02-13T10:40:53.965Z,3.56
2018-02-13T10:41:53.912Z,3.62
2018-02-13T10:42:53.926Z,3.69
2018-02-13T10:43:53.912Z,3.75
2018-02-13T10:44:53.912Z,3.81
2018-02-13T10:45:53.955Z,3.81
2018-02-13T10:46:53.932Z,3.81
2018-02-13T10:47:53.938Z,3.81
2018-02-13T10:48:53.978Z,3.87
2018-02-13T10:49:53.912Z,3.87
2018-02-13T10:50:53.959Z,3.87
2018-02-13T10:51:53.978Z,3.94
2018-02-13T10:52:53.925Z,3.87
2018-02-13T10:54:53.959Z,3.87
2018-02-13T10:55:53.935Z,3.87
2018-02-13T10:56:53.915Z,3.87
2018-02-13T10:57:53.925Z,3.87
2018-02-13T10:58:53.917Z,3.87
2018-02-13T10:59:53.938Z,4
2018-02-13T11:00:53.986Z,4.06
2018-02-13T11:01:53.952Z,4.06
2018-02-13T11:02:53.920Z,4.12
2018-02-13T11:03:53.762Z,4.12
2018-02-13T11:04:53.762Z,4.19
2018-02-13T11:05:53.873Z,4.25
2018-02-13T11:06:54.316Z,4.19
2018-02-13T11:07:53.762Z,4.19
2018-02-13T11:08:53.753Z,4.19
2018-02-13T11:09:53.752Z,4.12
2018-02-13T11:10:53.812Z,4.12
2018-02-13T11:11:53.818Z,4.06
2018-02-13T11:12:53.768Z,4.06
2018-02-13T11:13:53.748Z,4
2018-02-13T11:14:53.881Z,3.87
2018-02-13T11:15:53.772Z,3.94
2018-02-13T11:16:53.790Z,3.94
2018-02-13T11:17:53.748Z,3.94
2018-02-13T11:18:53.762Z,4
2018-02-13T11:19:53.775Z,4.06
2018-02-13T11:20:53.738Z,4.12
2018-02-13T11:21:53.762Z,4.19
2018-02-13T11:22:53.769Z,4.31
2018-02-13T11:23:53.772Z,4.31
2018-02-13T11:24:53.783Z,4.44
2018-02-13T11:25:53.756Z,4.56
2018-02-13T11:26:53.885Z,4.62
2018-02-13T11:27:53.800Z,4.69
2018-02-13T11:28:53.766Z,4.75
2018-02-13T11:29:53.782Z,4.81
2018-02-13T11:30:53.754Z,4.87
2018-02-13T11:31:53.748Z,4.94
2018-02-13T11:32:53.759Z,5
2018-02-13T11:33:53.748Z,5.06
2018-02-13T11:34:54.616Z,5.06
2018-02-13T11:35:54.662Z,5.12
2018-02-13T11:36:54.620Z,5.19
2018-02-13T11:37:54.624Z,5.19
2018-02-13T11:38:54.660Z,5.19
2018-02-13T11:39:54.635Z,5.25
2018-02-13T11:40:54.579Z,5.31
2018-02-13T11:41:54.587Z,5.31
2018-02-13T11:42:54.586Z,5.37
2018-02-13T11:43:54.574Z,5.37
2018-02-13T11:44:54.586Z,5.37
2018-02-13T11:45:54.583Z,5.37
2018-02-13T11:46:54.602Z,5.5
2018-02-13T11:47:54.598Z,5.44
2018-02-13T11:48:54.616Z,5.37
2018-02-13T11:49:54.613Z,5.31
2018-02-13T11:50:54.602Z,5.31
2018-02-13T11:51:54.947Z,5.31
2018-02-13T11:52:54.598Z,5.37
2018-02-13T11:53:59.925Z,5.37
2018-02-13T11:55:10.424Z,5.44
2018-02-13T11:56:08.234Z,5.5
2018-02-13T11:56:54.947Z,5.5
2018-02-13T11:57:54.588Z,5.5
2018-02-13T11:58:54.587Z,5.44
2018-02-13T11:59:54.661Z,5.5
2018-02-13T12:00:54.597Z,5.5
2018-02-13T12:01:54.628Z,5.5
2018-02-13T12:02:54.614Z,5.5
2018-02-13T12:03:54.632Z,5.62
2018-02-13T12:04:53.775Z,5.62
2018-02-13T12:05:53.806Z,5.62
2018-02-13T12:06:53.767Z,5.69
2018-02-13T12:07:53.796Z,5.69
2018-02-13T12:08:53.785Z,5.69
2018-02-13T12:09:53.771Z,5.75
2018-02-13T12:10:53.757Z,5.75
2018-02-13T12:11:53.853Z,5.75
2018-02-13T12:12:53.757Z,5.81
2018-02-13T12:13:54.187Z,5.87
2018-02-13T12:14:53.805Z,5.87
2018-02-13T12:15:53.768Z,5.87
2018-02-13T12:16:53.752Z,5.87
2018-02-13T12:17:53.760Z,5.87
2018-02-13T12:18:53.761Z,5.81
2018-02-13T12:19:53.796Z,5.94
2018-02-13T12:20:53.762Z,5.87
2018-02-13T12:21:53.749Z,5.87
2018-02-13T12:22:53.758Z,5.94
2018-02-13T12:23:53.784Z,5.87
2018-02-13T12:24:53.758Z,5.94
2018-02-13T12:25:53.746Z,5.94
2018-02-13T12:26:53.876Z,6
2018-02-13T12:27:53.738Z,6
2018-02-13T12:28:53.774Z,6
2018-02-13T12:29:53.765Z,6
2018-02-13T12:30:53.763Z,6
2018-02-13T12:31:53.757Z,6.06
2018-02-13T12:32:53.742Z,6.12
2018-02-13T12:33:53.769Z,6.12
2018-02-13T12:34:53.780Z,6.12
2018-02-13T12:35:54.645Z,6.19
2018-02-13T12:36:54.641Z,6.19
2018-02-13T12:37:54.620Z,6.19
2018-02-13T12:38:54.608Z,6.19
2018-02-13T12:39:54.634Z,6.12
2018-02-13T12:40:54.617Z,6.25
2018-02-13T12:41:54.621Z,6.19
2018-02-13T12:42:54.926Z,6.31
2018-02-13T12:43:54.684Z,6.25
2018-02-13T12:44:55.029Z,6.31
2018-02-13T12:45:54.678Z,6.31
2018-02-13T12:46:54.627Z,6.25
2018-02-13T12:47:54.633Z,6.25
2018-02-13T12:48:54.739Z,6.25
2018-02-13T12:49:54.637Z,6.25
2018-02-13T12:50:54.621Z,6.25
2018-02-13T12:51:54.637Z,6.25
2018-02-13T12:52:54.601Z,6.25
2018-02-13T12:53:54.607Z,6.25
2018-02-13T12:54:54.654Z,6.25
2018-02-13T12:55:54.651Z,6.25
2018-02-13T12:56:54.626Z,6.19
2018-02-13T12:57:54.700Z,6.19
2018-02-13T12:58:54.638Z,6.19
2018-02-13T12:59:54.668Z,6.19
2018-02-13T13:00:54.648Z,6.25
2018-02-13T13:01:54.624Z,6.19
2018-02-13T13:02:54.628Z,6.19
2018-02-13T13:03:54.634Z,6.25
2018-02-13T13:04:54.648Z,6.25
2018-02-13T13:05:54.502Z,6.19
2018-02-13T13:06:54.512Z,6.12
2018-02-13T13:07:54.563Z,6.06
2018-02-13T13:08:54.505Z,6
2018-02-13T13:09:54.540Z,6.06
2018-02-13T13:10:54.885Z,6.12
2018-02-13T13:11:54.497Z,6.12
2018-02-13T13:12:54.509Z,6.06
2018-02-13T13:13:54.507Z,6.06
2018-02-13T13:14:54.565Z,6.12
2018-02-13T13:15:54.514Z,6.12
2018-02-13T13:16:54.502Z,6.12
2018-02-13T13:17:54.586Z,6.12
2018-02-13T13:18:54.493Z,6.19
2018-02-13T13:19:54.541Z,6.12
2018-02-13T13:20:54.586Z,6.12
2018-02-13T13:23:03.495Z,6.19
2018-02-13T13:23:54.495Z,6.25
2018-02-13T13:24:54.491Z,6.19
2018-02-13T13:25:54.498Z,6.19
2018-02-13T13:26:54.497Z,6.12
2018-02-13T13:27:54.515Z,6.19
2018-02-13T13:28:54.522Z,6.19
2018-02-13T13:29:54.580Z,6.19
2018-02-13T13:30:54.501Z,6.25
2018-02-13T13:31:54.504Z,6.12
2018-02-13T13:32:54.509Z,6.19
2018-02-13T13:33:54.491Z,6.25